LSGG/GVA METAR and TAF weather

Enter ICAO airport designator
Station Type Date Time Source
LSGG METAR 2019/10/15 21:50 UTC NOAA

LSGG 152150Z AUTO 28005KT 9999 FEW039 SCT053 10/08 Q1019 NOSIG


Station Type Date Time Source
LSGG Decoded METAR 2019/10/15 21:50 UTC NOAA

Geneve-Cointrin, Switzerland (LSGG) 46-15N 006-08E 416M
Oct 15, 2019 - 05:50 PM EDT / 2019.10.15 2150 UTC
Wind: from the W (280 degrees) at 6 MPH (5 KT):0
Visibility: greater than 7 mile(s):0
Sky conditions: partly cloudy
Temperature: 50 F (10 C)
Dew Point: 46 F (8 C)
Relative Humidity: 87%
Pressure (altimeter): 30.09 in. Hg (1019 hPa)
ob: LSGG 152150Z AUTO 28005KT 9999 FEW039 SCT053 10/08 Q1019 NOSIG
cycle: 22

Station Type Date Time Source
LSGG TAF 2019/10/15 21:37 UTC NOAA

TAF LSGG 152025Z 1521/1703 23005KT 9999 FEW015 BKN050 TX17/1615Z TN07/1605Z PROB30 1603/1607 2000 BCFG
BECMG 1607/1610 CAVOK
BECMG 1700/1703 9999 SCT100

Example: see airport list